sensor_id;sensor_type;location;lat;lon;timestamp;temperature;humidity
6538;DHT22;3302;52.508;13.454;2023-04-03T00:00:07;1.70;86.00
6538;DHT22;3302;52.508;13.454;2023-04-03T00:02:33;1.70;85.60
6538;DHT22;3302;52.508;13.454;2023-04-03T00:04:59;1.70;85.80
6538;DHT22;3302;52.508;13.454;2023-04-03T00:07:25;1.60;86.70
6538;DHT22;3302;52.508;13.454;2023-04-03T00:09:50;1.70;85.80
6538;DHT22;3302;52.508;13.454;2023-04-03T00:12:16;1.70;85.60
6538;DHT22;3302;52.508;13.454;2023-04-03T00:14:42;1.60;86.00
6538;DHT22;3302;52.508;13.454;2023-04-03T00:17:08;1.60;86.20
6538;DHT22;3302;52.508;13.454;2023-04-03T00:19:34;1.70;85.80
6538;DHT22;3302;52.508;13.454;2023-04-03T00:22:00;1.60;86.00
6538;DHT22;3302;52.508;13.454;2023-04-03T00:24:26;1.60;85.60
6538;DHT22;3302;52.508;13.454;2023-04-03T00:26:51;1.50;85.40
6538;DHT22;3302;52.508;13.454;2023-04-03T00:29:17;1.60;85.20
6538;DHT22;3302;52.508;13.454;2023-04-03T00:31:43;1.50;85.20
6538;DHT22;3302;52.508;13.454;2023-04-03T00:34:09;1.60;84.90
6538;DHT22;3302;52.508;13.454;2023-04-03T00:36:35;1.50;85.80
6538;DHT22;3302;52.508;13.454;2023-04-03T00:39:01;1.60;84.90
6538;DHT22;3302;52.508;13.454;2023-04-03T00:41:27;1.50;85.50
6538;DHT22;3302;52.508;13.454;2023-04-03T00:43:52;1.50;84.60
6538;DHT22;3302;52.508;13.454;2023-04-03T00:46:18;1.50;85.10
6538;DHT22;3302;52.508;13.454;2023-04-03T00:48:45;1.40;85.20
6538;DHT22;3302;52.508;13.454;2023-04-03T00:51:18;1.40;85.20
6538;DHT22;3302;52.508;13.454;2023-04-03T00:53:52;1.50;85.60
6538;DHT22;3302;52.508;13.454;2023-04-03T00:56:23;1.20;85.60
6538;DHT22;3302;52.508;13.454;2023-04-03T00:58:56;1.30;85.40
6538;DHT22;3302;52.508;13.454;2023-04-03T01:01:26;1.40;85.40
6538;DHT22;3302;52.508;13.454;2023-04-03T01:03:52;1.40;85.70
6538;DHT22;3302;52.508;13.454;2023-04-03T01:06:23;1.30;85.60
6538;DHT22;3302;52.508;13.454;2023-04-03T01:08:50;1.30;85.60
6538;DHT22;3302;52.508;13.454;2023-04-03T01:11:16;1.30;85.50
6538;DHT22;3302;52.508;13.454;2023-04-03T01:13:42;1.30;85.60
6538;DHT22;3302;52.508;13.454;2023-04-03T01:16:09;1.40;84.50
6538;DHT22;3302;52.508;13.454;2023-04-03T01:18:37;1.30;85.60
6538;DHT22;3302;52.508;13.454;2023-04-03T01:24:07;1.30;86.30
6538;DHT22;3302;52.508;13.454;2023-04-03T01:26:37;1.30;85.90
6538;DHT22;3302;52.508;13.454;2023-04-03T01:29:02;1.30;86.50
6538;DHT22;3302;52.508;13.454;2023-04-03T01:34:11;1.20;86.60
6538;DHT22;3302;52.508;13.454;2023-04-03T01:36:37;1.30;86.70
6538;DHT22;3302;52.508;13.454;2023-04-03T01:39:03;1.40;86.10
6538;DHT22;3302;52.508;13.454;2023-04-03T01:41:28;1.30;86.80
6538;DHT22;3302;52.508;13.454;2023-04-03T01:43:54;1.30;87.40
6538;DHT22;3302;52.508;13.454;2023-04-03T01:46:21;1.20;86.60
6538;DHT22;3302;52.508;13.454;2023-04-03T01:48:47;1.20;86.90
6538;DHT22;3302;52.508;13.454;2023-04-03T01:51:13;1.20;87.00
6538;DHT22;3302;52.508;13.454;2023-04-03T01:53:39;1.10;87.00
6538;DHT22;3302;52.508;13.454;2023-04-03T01:56:05;1.10;87.20
6538;DHT22;3302;52.508;13.454;2023-04-03T01:58:31;1.20;87.20
6538;DHT22;3302;52.508;13.454;2023-04-03T02:00:57;1.20;87.60
6538;DHT22;3302;52.508;13.454;2023-04-03T02:03:22;1.00;88.60
6538;DHT22;3302;52.508;13.454;2023-04-03T02:05:49;0.90;89.20
6538;DHT22;3302;52.508;13.454;2023-04-03T02:08:15;0.80;90.10
6538;DHT22;3302;52.508;13.454;2023-04-03T02:10:44;0.80;90.20
6538;DHT22;3302;52.508;13.454;2023-04-03T02:13:10;0.70;90.40
6538;DHT22;3302;52.508;13.454;2023-04-03T02:15:39;0.70;90.60
6538;DHT22;3302;52.508;13.454;2023-04-03T02:18:05;0.70;90.70
6538;DHT22;3302;52.508;13.454;2023-04-03T02:20:32;0.70;91.10
6538;DHT22;3302;52.508;13.454;2023-04-03T02:22:58;0.70;90.70
6538;DHT22;3302;52.508;13.454;2023-04-03T02:25:24;0.70;90.80
6538;DHT22;3302;52.508;13.454;2023-04-03T02:27:50;0.60;91.10
6538;DHT22;3302;52.508;13.454;2023-04-03T02:30:16;0.70;90.90
6538;DHT22;3302;52.508;13.454;2023-04-03T02:32:42;0.70;91.00
6538;DHT22;3302;52.508;13.454;2023-04-03T02:35:09;0.60;91.40
6538;DHT22;3302;52.508;13.454;2023-04-03T02:37:35;0.60;91.10
6538;DHT22;3302;52.508;13.454;2023-04-03T02:40:01;0.60;91.40
6538;DHT22;3302;52.508;13.454;2023-04-03T02:42:26;0.60;91.30
6538;DHT22;3302;52.508;13.454;2023-04-03T02:44:52;0.60;91.50
6538;DHT22;3302;52.508;13.454;2023-04-03T02:47:18;0.60;91.50
6538;DHT22;3302;52.508;13.454;2023-04-03T02:49:44;0.50;91.40
6538;DHT22;3302;52.508;13.454;2023-04-03T02:52:12;0.50;91.60
6538;DHT22;3302;52.508;13.454;2023-04-03T02:54:38;0.40;91.90
6538;DHT22;3302;52.508;13.454;2023-04-03T02:57:04;0.50;92.00
6538;DHT22;3302;52.508;13.454;2023-04-03T02:59:30;0.50;92.10
6538;DHT22;3302;52.508;13.454;2023-04-03T03:01:55;0.50;91.90
6538;DHT22;3302;52.508;13.454;2023-04-03T03:04:22;0.50;92.00
6538;DHT22;3302;52.508;13.454;2023-04-03T03:06:48;0.40;92.30
6538;DHT22;3302;52.508;13.454;2023-04-03T03:09:14;0.30;92.30
6538;DHT22;3302;52.508;13.454;2023-04-03T03:11:40;0.30;92.50
6538;DHT22;3302;52.508;13.454;2023-04-03T03:14:05;0.30;92.50
6538;DHT22;3302;52.508;13.454;2023-04-03T03:16:31;0.30;92.60
6538;DHT22;3302;52.508;13.454;2023-04-03T03:18:57;0.20;92.70
6538;DHT22;3302;52.508;13.454;2023-04-03T03:21:23;0.20;92.80
6538;DHT22;3302;52.508;13.454;2023-04-03T03:23:48;0.20;92.80
6538;DHT22;3302;52.508;13.454;2023-04-03T03:26:14;0.30;92.80
6538;DHT22;3302;52.508;13.454;2023-04-03T03:28:40;0.30;92.90
6538;DHT22;3302;52.508;13.454;2023-04-03T03:31:07;0.10;93.00
6538;DHT22;3302;52.508;13.454;2023-04-03T03:33:32;0.20;93.00
6538;DHT22;3302;52.508;13.454;2023-04-03T03:35:59;0.20;93.30
6538;DHT22;3302;52.508;13.454;2023-04-03T03:38:25;0.20;92.70
6538;DHT22;3302;52.508;13.454;2023-04-03T03:40:51;0.10;93.20
6538;DHT22;3302;52.508;13.454;2023-04-03T03:43:17;0.10;93.10
6538;DHT22;3302;52.508;13.454;2023-04-03T03:45:44;0.20;93.20
6538;DHT22;3302;52.508;13.454;2023-04-03T03:48:11;0.20;93.10
6538;DHT22;3302;52.508;13.454;2023-04-03T03:50:37;0.10;93.00
6538;DHT22;3302;52.508;13.454;2023-04-03T03:53:02;0.10;93.20
6538;DHT22;3302;52.508;13.454;2023-04-03T03:55:28;0.00;93.10
6538;DHT22;3302;52.508;13.454;2023-04-03T03:57:54;0.00;93.30
6538;DHT22;3302;52.508;13.454;2023-04-03T04:00:20;0.00;93.30
6538;DHT22;3302;52.508;13.454;2023-04-03T04:02:46;0.10;93.30
6538;DHT22;3302;52.508;13.454;2023-04-03T04:05:12;0.00;93.40
6538;DHT22;3302;52.508;13.454;2023-04-03T04:07:37;0.00;93.50
6538;DHT22;3302;52.508;13.454;2023-04-03T04:10:04;0.00;93.60
6538;DHT22;3302;52.508;13.454;2023-04-03T04:12:30;-0.10;93.50
6538;DHT22;3302;52.508;13.454;2023-04-03T04:14:55;0.00;93.70
6538;DHT22;3302;52.508;13.454;2023-04-03T04:17:21;0.00;93.60
6538;DHT22;3302;52.508;13.454;2023-04-03T04:19:47;-0.20;94.00
6538;DHT22;3302;52.508;13.454;2023-04-03T04:22:13;-0.10;94.00
6538;DHT22;3302;52.508;13.454;2023-04-03T04:24:38;-0.20;94.00
6538;DHT22;3302;52.508;13.454;2023-04-03T04:27:04;-0.10;94.20
6538;DHT22;3302;52.508;13.454;2023-04-03T04:29:30;-0.20;94.10
6538;DHT22;3302;52.508;13.454;2023-04-03T04:32:01;-0.10;94.30
6538;DHT22;3302;52.508;13.454;2023-04-03T04:34:26;-0.10;94.20
6538;DHT22;3302;52.508;13.454;2023-04-03T04:36:52;-0.20;94.30
6538;DHT22;3302;52.508;13.454;2023-04-03T04:39:18;-0.20;94.60
6538;DHT22;3302;52.508;13.454;2023-04-03T04:41:44;-0.10;94.60
6538;DHT22;3302;52.508;13.454;2023-04-03T04:44:10;-0.20;94.50
6538;DHT22;3302;52.508;13.454;2023-04-03T04:46:35;0.00;94.40
6538;DHT22;3302;52.508;13.454;2023-04-03T04:49:01;-0.10;94.50
6538;DHT22;3302;52.508;13.454;2023-04-03T04:51:27;-0.10;94.50
6538;DHT22;3302;52.508;13.454;2023-04-03T04:53:52;0.00;94.40
6538;DHT22;3302;52.508;13.454;2023-04-03T04:56:18;0.00;94.50
6538;DHT22;3302;52.508;13.454;2023-04-03T04:58:44;0.00;94.40
6538;DHT22;3302;52.508;13.454;2023-04-03T05:01:11;0.00;94.40
6538;DHT22;3302;52.508;13.454;2023-04-03T05:03:37;0.10;94.50
6538;DHT22;3302;52.508;13.454;2023-04-03T05:06:03;0.10;94.30
6538;DHT22;3302;52.508;13.454;2023-04-03T05:08:29;0.10;94.20
6538;DHT22;3302;52.508;13.454;2023-04-03T05:10:55;0.10;94.50
6538;DHT22;3302;52.508;13.454;2023-04-03T05:13:20;0.00;94.70
6538;DHT22;3302;52.508;13.454;2023-04-03T05:15:47;0.20;94.60
6538;DHT22;3302;52.508;13.454;2023-04-03T05:18:13;0.30;94.40
6538;DHT22;3302;52.508;13.454;2023-04-03T05:20:39;0.30;94.50
6538;DHT22;3302;52.508;13.454;2023-04-03T05:23:05;0.20;94.30
6538;DHT22;3302;52.508;13.454;2023-04-03T05:25:31;0.10;94.40
6538;DHT22;3302;52.508;13.454;2023-04-03T05:27:57;0.10;94.70
6538;DHT22;3302;52.508;13.454;2023-04-03T05:30:23;0.20;94.80
6538;DHT22;3302;52.508;13.454;2023-04-03T05:32:48;0.20;94.60
6538;DHT22;3302;52.508;13.454;2023-04-03T05:35:14;0.20;94.40
6538;DHT22;3302;52.508;13.454;2023-04-03T05:37:41;0.20;94.60
6538;DHT22;3302;52.508;13.454;2023-04-03T05:40:07;0.30;94.50
6538;DHT22;3302;52.508;13.454;2023-04-03T05:42:34;0.30;94.60
6538;DHT22;3302;52.508;13.454;2023-04-03T05:45:00;0.40;94.10
6538;DHT22;3302;52.508;13.454;2023-04-03T05:47:25;0.30;94.20
6538;DHT22;3302;52.508;13.454;2023-04-03T05:49:51;0.40;94.30
6538;DHT22;3302;52.508;13.454;2023-04-03T05:52:32;0.40;94.70
6538;DHT22;3302;52.508;13.454;2023-04-03T05:54:58;0.60;94.10
6538;DHT22;3302;52.508;13.454;2023-04-03T05:57:24;0.50;94.00
6538;DHT22;3302;52.508;13.454;2023-04-03T05:59:50;0.50;94.00
6538;DHT22;3302;52.508;13.454;2023-04-03T06:02:21;0.60;93.70
6538;DHT22;3302;52.508;13.454;2023-04-03T06:04:47;0.70;93.60
6538;DHT22;3302;52.508;13.454;2023-04-03T06:07:16;1.00;93.00
6538;DHT22;3302;52.508;13.454;2023-04-03T06:09:43;0.80;93.10
6538;DHT22;3302;52.508;13.454;2023-04-03T06:12:09;0.90;93.30
6538;DHT22;3302;52.508;13.454;2023-04-03T06:14:35;1.10;92.70
6538;DHT22;3302;52.508;13.454;2023-04-03T06:17:02;0.90;92.90
6538;DHT22;3302;52.508;13.454;2023-04-03T06:19:28;0.90;92.70
6538;DHT22;3302;52.508;13.454;2023-04-03T06:21:54;1.20;92.50
6538;DHT22;3302;52.508;13.454;2023-04-03T06:24:20;1.20;92.10
6538;DHT22;3302;52.508;13.454;2023-04-03T06:26:48;1.30;91.80
6538;DHT22;3302;52.508;13.454;2023-04-03T06:29:15;1.40;91.20
6538;DHT22;3302;52.508;13.454;2023-04-03T06:31:41;1.30;91.30
6538;DHT22;3302;52.508;13.454;2023-04-03T06:34:07;1.50;90.90
6538;DHT22;3302;52.508;13.454;2023-04-03T06:36:33;1.60;90.40
6538;DHT22;3302;52.508;13.454;2023-04-03T06:39:00;1.50;90.00
6538;DHT22;3302;52.508;13.454;2023-04-03T06:41:27;1.60;90.00
6538;DHT22;3302;52.508;13.454;2023-04-03T06:43:53;1.60;90.20
6538;DHT22;3302;52.508;13.454;2023-04-03T06:46:21;1.90;89.40
6538;DHT22;3302;52.508;13.454;2023-04-03T06:48:48;1.90;88.20
6538;DHT22;3302;52.508;13.454;2023-04-03T06:51:22;2.00;86.50
6538;DHT22;3302;52.508;13.454;2023-04-03T06:53:50;2.10;85.20
6538;DHT22;3302;52.508;13.454;2023-04-03T06:56:16;2.10;84.20
6538;DHT22;3302;52.508;13.454;2023-04-03T06:58:42;2.30;83.50
6538;DHT22;3302;52.508;13.454;2023-04-03T07:01:09;2.30;83.10
6538;DHT22;3302;52.508;13.454;2023-04-03T07:03:37;2.30;81.40
6538;DHT22;3302;52.508;13.454;2023-04-03T07:06:05;2.40;81.80
6538;DHT22;3302;52.508;13.454;2023-04-03T07:08:31;2.50;80.40
6538;DHT22;3302;52.508;13.454;2023-04-03T07:10:57;2.50;78.30
6538;DHT22;3302;52.508;13.454;2023-04-03T07:13:23;2.50;78.00
6538;DHT22;3302;52.508;13.454;2023-04-03T07:15:48;2.50;76.60
6538;DHT22;3302;52.508;13.454;2023-04-03T07:18:14;2.60;78.00
6538;DHT22;3302;52.508;13.454;2023-04-03T07:20:40;2.60;75.50
6538;DHT22;3302;52.508;13.454;2023-04-03T07:23:06;2.70;74.90
6538;DHT22;3302;52.508;13.454;2023-04-03T07:25:32;2.80;74.70
6538;DHT22;3302;52.508;13.454;2023-04-03T07:27:59;2.90;74.40
6538;DHT22;3302;52.508;13.454;2023-04-03T07:30:24;3.00;73.00
6538;DHT22;3302;52.508;13.454;2023-04-03T07:32:52;2.90;71.90
6538;DHT22;3302;52.508;13.454;2023-04-03T07:35:18;2.90;72.10
6538;DHT22;3302;52.508;13.454;2023-04-03T07:37:44;3.10;72.00
6538;DHT22;3302;52.508;13.454;2023-04-03T07:40:10;3.20;71.30
6538;DHT22;3302;52.508;13.454;2023-04-03T07:42:36;3.30;71.80
6538;DHT22;3302;52.508;13.454;2023-04-03T07:45:03;3.30;71.10
6538;DHT22;3302;52.508;13.454;2023-04-03T07:47:30;3.30;70.00
6538;DHT22;3302;52.508;13.454;2023-04-03T07:49:57;3.50;70.20
6538;DHT22;3302;52.508;13.454;2023-04-03T07:52:23;3.50;68.60
6538;DHT22;3302;52.508;13.454;2023-04-03T07:54:49;3.50;67.50
6538;DHT22;3302;52.508;13.454;2023-04-03T07:57:15;3.70;67.90
6538;DHT22;3302;52.508;13.454;2023-04-03T07:59:41;3.50;67.30
6538;DHT22;3302;52.508;13.454;2023-04-03T08:02:12;3.50;65.90
6538;DHT22;3302;52.508;13.454;2023-04-03T08:04:38;3.30;66.50
6538;DHT22;3302;52.508;13.454;2023-04-03T08:07:04;3.40;67.30
6538;DHT22;3302;52.508;13.454;2023-04-03T08:09:30;3.40;66.60
6538;DHT22;3302;52.508;13.454;2023-04-03T08:11:57;3.40;66.70
6538;DHT22;3302;52.508;13.454;2023-04-03T08:14:23;3.30;67.30
6538;DHT22;3302;52.508;13.454;2023-04-03T08:16:50;3.50;68.00
6538;DHT22;3302;52.508;13.454;2023-04-03T08:19:16;3.50;67.50
6538;DHT22;3302;52.508;13.454;2023-04-03T08:21:44;3.60;68.60
6538;DHT22;3302;52.508;13.454;2023-04-03T08:24:11;3.60;66.90
6538;DHT22;3302;52.508;13.454;2023-04-03T08:26:37;3.40;66.50
6538;DHT22;3302;52.508;13.454;2023-04-03T08:29:03;3.40;66.00
6538;DHT22;3302;52.508;13.454;2023-04-03T08:31:28;3.50;66.70
6538;DHT22;3302;52.508;13.454;2023-04-03T08:33:56;3.70;66.00
6538;DHT22;3302;52.508;13.454;2023-04-03T08:36:24;3.60;63.40
6538;DHT22;3302;52.508;13.454;2023-04-03T08:38:51;3.50;62.40
6538;DHT22;3302;52.508;13.454;2023-04-03T08:41:33;3.50;63.90
6538;DHT22;3302;52.508;13.454;2023-04-03T08:50:02;3.50;63.70
6538;DHT22;3302;52.508;13.454;2023-04-03T08:52:36;3.40;63.60
6538;DHT22;3302;52.508;13.454;2023-04-03T08:57:38;3.60;64.00
6538;DHT22;3302;52.508;13.454;2023-04-03T09:00:18;3.70;63.90
6538;DHT22;3302;52.508;13.454;2023-04-03T09:02:51;3.80;62.30
6538;DHT22;3302;52.508;13.454;2023-04-03T09:05:20;3.90;62.00
6538;DHT22;3302;52.508;13.454;2023-04-03T09:08:07;3.80;62.30
6538;DHT22;3302;52.508;13.454;2023-04-03T09:10:38;3.70;60.60
6538;DHT22;3302;52.508;13.454;2023-04-03T09:15:43;3.80;58.50
6538;DHT22;3302;52.508;13.454;2023-04-03T09:18:32;4.00;57.90
6538;DHT22;3302;52.508;13.454;2023-04-03T09:21:25;4.10;57.60
6538;DHT22;3302;52.508;13.454;2023-04-03T09:23:57;4.50;54.70
6538;DHT22;3302;52.508;13.454;2023-04-03T09:26:27;4.40;54.90
6538;DHT22;3302;52.508;13.454;2023-04-03T09:28:58;4.70;54.90
6538;DHT22;3302;52.508;13.454;2023-04-03T09:31:29;4.50;54.80
6538;DHT22;3302;52.508;13.454;2023-04-03T09:36:46;4.10;54.10
6538;DHT22;3302;52.508;13.454;2023-04-03T09:39:21;4.30;53.50
6538;DHT22;3302;52.508;13.454;2023-04-03T09:42:04;4.20;54.50
6538;DHT22;3302;52.508;13.454;2023-04-03T09:44:35;4.30;54.60
6538;DHT22;3302;52.508;13.454;2023-04-03T09:49:49;4.50;54.00
6538;DHT22;3302;52.508;13.454;2023-04-03T09:52:22;4.40;54.00
6538;DHT22;3302;52.508;13.454;2023-04-03T09:54:48;4.30;54.40
6538;DHT22;3302;52.508;13.454;2023-04-03T09:57:14;4.40;55.20
6538;DHT22;3302;52.508;13.454;2023-04-03T10:00:10;4.60;55.70
6538;DHT22;3302;52.508;13.454;2023-04-03T10:02:44;4.50;54.80
6538;DHT22;3302;52.508;13.454;2023-04-03T10:05:44;4.60;55.00
6538;DHT22;3302;52.508;13.454;2023-04-03T10:08:31;4.60;55.10
6538;DHT22;3302;52.508;13.454;2023-04-03T10:11:17;4.50;54.80
6538;DHT22;3302;52.508;13.454;2023-04-03T10:13:56;4.50;54.60
6538;DHT22;3302;52.508;13.454;2023-04-03T10:16:29;4.60;54.90
6538;DHT22;3302;52.508;13.454;2023-04-03T10:22:03;4.60;55.50
6538;DHT22;3302;52.508;13.454;2023-04-03T10:27:20;4.70;54.80
6538;DHT22;3302;52.508;13.454;2023-04-03T10:37:57;4.80;53.70
6538;DHT22;3302;52.508;13.454;2023-04-03T10:54:11;5.10;53.40
6538;DHT22;3302;52.508;13.454;2023-04-03T10:57:03;5.10;53.70
6538;DHT22;3302;52.508;13.454;2023-04-03T10:59:36;5.20;52.70
6538;DHT22;3302;52.508;13.454;2023-04-03T11:02:32;5.20;52.50
6538;DHT22;3302;52.508;13.454;2023-04-03T11:07:53;5.00;53.00
6538;DHT22;3302;52.508;13.454;2023-04-03T11:10:28;5.00;52.80
6538;DHT22;3302;52.508;13.454;2023-04-03T11:15:33;5.20;53.80
6538;DHT22;3302;52.508;13.454;2023-04-03T11:18:17;5.00;53.50
6538;DHT22;3302;52.508;13.454;2023-04-03T11:20:53;5.20;54.10
6538;DHT22;3302;52.508;13.454;2023-04-03T11:23:25;5.40;54.00
6538;DHT22;3302;52.508;13.454;2023-04-03T11:25:58;5.40;53.80
6538;DHT22;3302;52.508;13.454;2023-04-03T11:28:25;5.40;54.20
6538;DHT22;3302;52.508;13.454;2023-04-03T11:33:43;5.10;55.00
6538;DHT22;3302;52.508;13.454;2023-04-03T11:36:38;5.10;54.80
6538;DHT22;3302;52.508;13.454;2023-04-03T11:39:29;5.20;55.00
6538;DHT22;3302;52.508;13.454;2023-04-03T11:42:24;5.10;55.50
6538;DHT22;3302;52.508;13.454;2023-04-03T11:48:01;5.30;54.70
6538;DHT22;3302;52.508;13.454;2023-04-03T12:29:34;5.50;55.10
6538;DHT22;3302;52.508;13.454;2023-04-03T12:46:24;5.60;53.20
6538;DHT22;3302;52.508;13.454;2023-04-03T12:48:55;5.50;52.90
6538;DHT22;3302;52.508;13.454;2023-04-03T12:51:34;5.50;53.50
6538;DHT22;3302;52.508;13.454;2023-04-03T12:54:12;5.40;53.30
6538;DHT22;3302;52.508;13.454;2023-04-03T12:56:39;5.50;53.00
6538;DHT22;3302;52.508;13.454;2023-04-03T13:01:44;5.60;52.60
6538;DHT22;3302;52.508;13.454;2023-04-03T13:04:18;5.60;52.70
6538;DHT22;3302;52.508;13.454;2023-04-03T13:06:44;5.50;51.90
6538;DHT22;3302;52.508;13.454;2023-04-03T13:09:26;5.50;51.90
6538;DHT22;3302;52.508;13.454;2023-04-03T13:11:59;5.60;52.70
6538;DHT22;3302;52.508;13.454;2023-04-03T13:14:27;5.80;52.60
6538;DHT22;3302;52.508;13.454;2023-04-03T13:17:09;5.70;53.00
6538;DHT22;3302;52.508;13.454;2023-04-03T13:19:36;5.70;53.00
6538;DHT22;3302;52.508;13.454;2023-04-03T13:22:04;5.80;53.90
6538;DHT22;3302;52.508;13.454;2023-04-03T13:24:34;5.50;54.20
6538;DHT22;3302;52.508;13.454;2023-04-03T13:27:01;5.60;54.40
6538;DHT22;3302;52.508;13.454;2023-04-03T13:29:33;5.70;53.50
6538;DHT22;3302;52.508;13.454;2023-04-03T13:32:01;5.70;53.60
6538;DHT22;3302;52.508;13.454;2023-04-03T13:34:35;5.60;53.00
6538;DHT22;3302;52.508;13.454;2023-04-03T13:37:02;5.70;53.50
6538;DHT22;3302;52.508;13.454;2023-04-03T13:39:36;5.60;53.60
6538;DHT22;3302;52.508;13.454;2023-04-03T13:42:22;5.40;53.90
6538;DHT22;3302;52.508;13.454;2023-04-03T13:44:49;5.40;53.90
6538;DHT22;3302;52.508;13.454;2023-04-03T13:47:24;5.30;54.40
6538;DHT22;3302;52.508;13.454;2023-04-03T13:50:48;5.30;54.30
6538;DHT22;3302;52.508;13.454;2023-04-03T13:53:00;5.40;54.30
6538;DHT22;3302;52.508;13.454;2023-04-03T13:55:33;5.40;54.60
6538;DHT22;3302;52.508;13.454;2023-04-03T13:58:21;5.50;55.00
6538;DHT22;3302;52.508;13.454;2023-04-03T14:01:37;5.60;55.40
6538;DHT22;3302;52.508;13.454;2023-04-03T14:03:56;5.20;55.80
6538;DHT22;3302;52.508;13.454;2023-04-03T14:06:23;5.30;56.70
6538;DHT22;3302;52.508;13.454;2023-04-03T14:08:50;5.30;56.50
6538;DHT22;3302;52.508;13.454;2023-04-03T14:11:35;5.30;56.10
6538;DHT22;3302;52.508;13.454;2023-04-03T14:14:05;5.40;56.20
6538;DHT22;3302;52.508;13.454;2023-04-03T14:16:34;5.50;55.70
6538;DHT22;3302;52.508;13.454;2023-04-03T14:19:02;5.40;55.00
6538;DHT22;3302;52.508;13.454;2023-04-03T14:21:28;5.50;54.60
6538;DHT22;3302;52.508;13.454;2023-04-03T14:23:54;5.50;55.20
6538;DHT22;3302;52.508;13.454;2023-04-03T14:26:23;5.40;54.90
6538;DHT22;3302;52.508;13.454;2023-04-03T14:28:51;5.50;55.10
6538;DHT22;3302;52.508;13.454;2023-04-03T14:31:18;5.60;55.40
6538;DHT22;3302;52.508;13.454;2023-04-03T14:33:44;6.20;54.60
6538;DHT22;3302;52.508;13.454;2023-04-03T14:36:19;6.40;54.20
6538;DHT22;3302;52.508;13.454;2023-04-03T14:38:46;6.20;54.80
6538;DHT22;3302;52.508;13.454;2023-04-03T14:41:14;5.90;54.40
6538;DHT22;3302;52.508;13.454;2023-04-03T14:43:40;5.90;54.80
6538;DHT22;3302;52.508;13.454;2023-04-03T14:46:14;6.00;54.70
6538;DHT22;3302;52.508;13.454;2023-04-03T14:48:40;5.70;55.30
6538;DHT22;3302;52.508;13.454;2023-04-03T14:51:06;5.50;55.70
6538;DHT22;3302;52.508;13.454;2023-04-03T14:53:32;5.50;56.50
6538;DHT22;3302;52.508;13.454;2023-04-03T14:55:58;5.60;56.60
6538;DHT22;3302;52.508;13.454;2023-04-03T14:58:24;5.50;56.80
6538;DHT22;3302;52.508;13.454;2023-04-03T15:00:49;5.60;57.10
6538;DHT22;3302;52.508;13.454;2023-04-03T15:03:18;5.50;57.60
6538;DHT22;3302;52.508;13.454;2023-04-03T15:05:47;5.50;58.00
6538;DHT22;3302;52.508;13.454;2023-04-03T15:08:30;5.30;59.00
6538;DHT22;3302;52.508;13.454;2023-04-03T15:10:56;5.10;59.40
6538;DHT22;3302;52.508;13.454;2023-04-03T15:13:23;5.10;59.40
6538;DHT22;3302;52.508;13.454;2023-04-03T15:15:50;5.10;60.20
6538;DHT22;3302;52.508;13.454;2023-04-03T15:18:22;4.90;60.00
6538;DHT22;3302;52.508;13.454;2023-04-03T15:20:48;5.10;60.30
6538;DHT22;3302;52.508;13.454;2023-04-03T15:23:15;5.10;60.30
6538;DHT22;3302;52.508;13.454;2023-04-03T15:25:43;5.10;60.90
6538;DHT22;3302;52.508;13.454;2023-04-03T15:28:34;5.10;61.30
6538;DHT22;3302;52.508;13.454;2023-04-03T15:31:00;5.00;61.30
6538;DHT22;3302;52.508;13.454;2023-04-03T15:33:26;4.90;61.80
6538;DHT22;3302;52.508;13.454;2023-04-03T15:35:53;4.90;62.60
6538;DHT22;3302;52.508;13.454;2023-04-03T15:38:18;4.80;63.00
6538;DHT22;3302;52.508;13.454;2023-04-03T15:40:45;4.80;62.80
6538;DHT22;3302;52.508;13.454;2023-04-03T15:43:12;4.90;62.60
6538;DHT22;3302;52.508;13.454;2023-04-03T15:45:38;5.00;62.90
6538;DHT22;3302;52.508;13.454;2023-04-03T15:48:04;4.70;62.10
6538;DHT22;3302;52.508;13.454;2023-04-03T15:50:32;4.70;62.70
6538;DHT22;3302;52.508;13.454;2023-04-03T15:52:59;4.60;63.10
6538;DHT22;3302;52.508;13.454;2023-04-03T15:55:29;4.60;62.90
6538;DHT22;3302;52.508;13.454;2023-04-03T15:57:55;4.70;62.70
6538;DHT22;3302;52.508;13.454;2023-04-03T16:00:22;4.60;62.20
6538;DHT22;3302;52.508;13.454;2023-04-03T16:02:52;4.60;62.50
6538;DHT22;3302;52.508;13.454;2023-04-03T16:05:19;4.60;62.90
6538;DHT22;3302;52.508;13.454;2023-04-03T16:07:45;4.50;63.00
6538;DHT22;3302;52.508;13.454;2023-04-03T16:10:13;4.50;63.30
6538;DHT22;3302;52.508;13.454;2023-04-03T16:12:40;4.70;62.70
6538;DHT22;3302;52.508;13.454;2023-04-03T16:15:06;4.80;62.30
6538;DHT22;3302;52.508;13.454;2023-04-03T16:17:34;4.80;61.70
6538;DHT22;3302;52.508;13.454;2023-04-03T16:20:00;5.00;61.70
6538;DHT22;3302;52.508;13.454;2023-04-03T16:22:28;5.10;61.90
6538;DHT22;3302;52.508;13.454;2023-04-03T16:24:54;5.00;61.20
6538;DHT22;3302;52.508;13.454;2023-04-03T16:27:21;5.10;61.30
6538;DHT22;3302;52.508;13.454;2023-04-03T16:29:47;5.10;61.10
6538;DHT22;3302;52.508;13.454;2023-04-03T16:32:13;5.10;60.70
6538;DHT22;3302;52.508;13.454;2023-04-03T16:34:39;5.10;60.70
6538;DHT22;3302;52.508;13.454;2023-04-03T16:37:06;4.90;60.90
6538;DHT22;3302;52.508;13.454;2023-04-03T16:39:35;5.00;60.80
6538;DHT22;3302;52.508;13.454;2023-04-03T16:42:01;4.90;62.10
6538;DHT22;3302;52.508;13.454;2023-04-03T16:44:26;4.90;61.60
6538;DHT22;3302;52.508;13.454;2023-04-03T16:46:52;4.80;62.80
6538;DHT22;3302;52.508;13.454;2023-04-03T16:49:18;4.70;63.30
6538;DHT22;3302;52.508;13.454;2023-04-03T16:51:44;4.70;63.40
6538;DHT22;3302;52.508;13.454;2023-04-03T16:54:11;4.70;64.40
6538;DHT22;3302;52.508;13.454;2023-04-03T16:56:39;4.60;63.50
6538;DHT22;3302;52.508;13.454;2023-04-03T16:59:05;4.60;64.50
6538;DHT22;3302;52.508;13.454;2023-04-03T17:01:31;4.50;64.20
6538;DHT22;3302;52.508;13.454;2023-04-03T17:03:56;4.50;64.20
6538;DHT22;3302;52.508;13.454;2023-04-03T17:06:22;4.60;65.20
6538;DHT22;3302;52.508;13.454;2023-04-03T17:08:51;4.60;64.20
6538;DHT22;3302;52.508;13.454;2023-04-03T17:11:17;4.60;64.90
6538;DHT22;3302;52.508;13.454;2023-04-03T17:13:43;4.60;64.60
6538;DHT22;3302;52.508;13.454;2023-04-03T17:16:12;4.40;65.10
6538;DHT22;3302;52.508;13.454;2023-04-03T17:18:39;4.30;65.60
6538;DHT22;3302;52.508;13.454;2023-04-03T17:21:06;4.40;66.00
6538;DHT22;3302;52.508;13.454;2023-04-03T17:23:33;4.30;66.10
6538;DHT22;3302;52.508;13.454;2023-04-03T17:26:01;4.30;66.60
6538;DHT22;3302;52.508;13.454;2023-04-03T17:28:27;4.20;66.70
6538;DHT22;3302;52.508;13.454;2023-04-03T17:30:54;4.30;66.90
6538;DHT22;3302;52.508;13.454;2023-04-03T17:33:20;4.30;66.30
6538;DHT22;3302;52.508;13.454;2023-04-03T17:35:46;4.30;66.30
6538;DHT22;3302;52.508;13.454;2023-04-03T17:38:12;4.30;66.80
6538;DHT22;3302;52.508;13.454;2023-04-03T17:40:38;4.20;67.20
6538;DHT22;3302;52.508;13.454;2023-04-03T17:43:04;4.30;67.20
6538;DHT22;3302;52.508;13.454;2023-04-03T17:45:30;4.20;67.30
6538;DHT22;3302;52.508;13.454;2023-04-03T17:47:56;4.10;68.10
6538;DHT22;3302;52.508;13.454;2023-04-03T17:50:21;4.10;68.10
6538;DHT22;3302;52.508;13.454;2023-04-03T17:52:47;4.20;68.00
6538;DHT22;3302;52.508;13.454;2023-04-03T17:55:13;4.20;68.50
6538;DHT22;3302;52.508;13.454;2023-04-03T17:57:42;4.00;69.20
6538;DHT22;3302;52.508;13.454;2023-04-03T18:00:09;4.10;69.10
6538;DHT22;3302;52.508;13.454;2023-04-03T18:02:34;4.00;69.30
6538;DHT22;3302;52.508;13.454;2023-04-03T18:05:00;3.90;69.70
6538;DHT22;3302;52.508;13.454;2023-04-03T18:07:27;3.90;69.70